KCEU/CEU METAR and TAF weather

Enter ICAO airport designator
Station Type Date Time Source
KCEU METAR 2019/04/19 22:54 UTC NOAA

KCEU 192254Z AUTO VRB06KT 10SM FEW075 BKN100 17/15 A2946 RMK AO2 SLP969 T01670150


Station Type Date Time Source
KCEU Decoded METAR 2019/04/19 22:54 UTC NOAA

CLEMSON-OCONEE COUNTY AIRPORT , SC, United States (KCEU) 34-40N 082-53W 268M
Apr 19, 2019 - 06:54 PM EDT / 2019.04.19 2254 UTC
Wind: Variable at 7 MPH (6 KT):0
Visibility: 10 mile(s):0
Sky conditions: mostly cloudy
Temperature: 62.1 F (16.7 C)
Dew Point: 59.0 F (15.0 C)
Relative Humidity: 89%
Pressure (altimeter): 29.46 in. Hg (997 hPa)
ob: KCEU 192254Z AUTO VRB06KT 10SM FEW075 BKN100 17/15 A2946 RMK AO2 SLP969 T01670150
cycle: 23

Station Type Date Time Source
KCEU TAF UTC NOAA

Error!

Example: see airport list